Snohomish, WA

8:59 PM PST on January 25, 2015 (GMT -0800)
APRSWXNET Snohomish WA US | Change Station
CLOSE
Current Station
Personal Weather Station
Location: Snohomish, WA
Elevation: 183 ft
Nearby Weather Stations

Elev 183 ft 47.94 °N, 122.09 °W | Updated 28 minutes ago

Mostly Cloudy
Mostly Cloudy
46 °F
Feels Like 46 °F
N
0
Wind Variable Wind from NW
Gusts 3.0 mph

Today
High -- | Low -- °F
--% Chance of Precip.
Yesterday
High -- | Low -- °F
Precip. -- in
7:44 AM 4:57 PM
Waxing Crescent, 39% visible
Pressure 30.03 in
Visibility 1.0 miles
Clouds Overcast 100 ft
Windchill 46 °F
Dew Point 44 °F
Humidity 94%
Rainfall 0.00 in
Snow Depth Not available.
UV 0 out of 12
Pollen 5.30 out of 12
Air Quality Not available.
Flu Activity Not available.
METAR KPAE 260453Z 02004KT 1SM R16R/2400VP6000FT BR OVC001 09/08 A3002 RMK AO2 SLP167 T00940083

More Conditions Fewer Conditions

Pressure 30.03 in
Visibility 1.0 miles
Clouds Overcast 100 ft
Windchill 46 °F
Dew Point 44 °F
Humidity 94%
Rainfall 0.00 in
Snow Depth Not available.
UV 0 out of 12
Pollen 5.30 out of 12
Air Quality Not available.
Flu Activity Not available.
METAR KPAE 260453Z 02004KT 1SM R16R/2400VP6000FT BR OVC001 09/08 A3002 RMK AO2 SLP167 T00940083

More Conditions Fewer Conditions

10-Day Weather Forecast

Almanac

Astronomy

Jan. 25, 2015 Rise Set
Actual Time
Civil Twilight
Nautical Twilight
Astronomical Twilight
Moon
Length of Visible Light
Length of Day
Tomorrow will be .
, % of the Moon is Illuminated

Today's Extremes

State Highs State Lows

Community

WunderPhotos

Upload Photos

1,790,139 photos uploaded!

WunderBlogs® & News

Nearby

Air Quality

  Air Quality AQ Index Pollutant
Not available.

Snow Depth

Station Depth Elevation

Earthquake Activity

City Distance Mag. Time & Date
Minimum magnitude displayed is 2.5.

Coastal Water Temperatures

Place Temperature

Nearby Weather Stations